Time;durP1;ratioP1;P1;durP2;ratioP2;P2;SDS_P1;SDS_P2;PMS_P1;PMS_P2;Temp;Humidity;BMP_temperature;BMP_pressure;BME280_temperature;BME280_humidity;BME280_pressure;Samples;Min_cycle;Max_cycle;Signal;HPM_P1;HPM_P2
2022/10/10 00:01:36;;;;;;;;;;;;;;;13.79;64.39;101661.63;5051513;28;19924;-89
2022/10/10 00:04:01;;;;;;;;;;;;;;;13.78;64.47;101659.97;5050568;28;20362;-89
2022/10/10 00:06:27;;;;;;;;;;;;;;;13.76;64.62;101667.38;5047113;28;20073;-87
2022/10/10 00:08:54;;;;;;;;;;;;;;;13.66;64.93;101673.72;5046270;28;19921;-87
2022/10/10 00:11:20;;;;;;;;;;;;;;;13.61;65.06;101665.25;5049830;28;19925;-88
2022/10/10 00:13:48;;;;;;;;;;;;;;;13.64;65.24;101662.22;5052976;28;19921;-89
2022/10/10 00:16:14;;;;;;;;;;;;;;;13.62;65.34;101660.69;5051728;28;19928;-88
2022/10/10 00:18:40;;;;;;;;;;;;;;;13.63;65.24;101668.63;5063420;28;19921;-89
2022/10/10 00:21:06;;;;;;;;;;;;;;;13.53;65.51;101665.16;5048693;28;19924;-88
2022/10/10 00:23:34;;;;;;;;;;;;;;;13.55;65.51;101667.72;5063233;28;19921;-89
2022/10/10 00:26:02;;;;;;;;;;;;;;;13.56;65.57;101667.56;5048257;28;20282;-87
2022/10/10 00:28:28;;;;;;;;;;;;;;;13.48;65.86;101664.78;5065347;28;19921;-87
2022/10/10 00:30:53;;;;;;;;;;;;;;;13.46;66.01;101662.25;5051128;28;19921;-90
2022/10/10 00:33:20;;;;;;;;;;;;;;;13.45;65.92;101673.19;5050925;28;20447;-87
2022/10/10 00:35:46;;;;;;;;;;;;;;;13.51;65.83;101676.13;5068315;28;20128;-88
2022/10/10 00:38:13;;;;;;;;;;;;;;;13.47;66.17;101676.59;5060807;28;20405;-88
2022/10/10 00:40:45;;;;;;;;;;;;;;;13.50;66.12;101679.81;5049862;28;19929;-89
2022/10/10 00:43:11;;;;;;;;;;;;;;;13.48;66.17;101680.97;5047716;28;19921;-88
2022/10/10 00:45:38;;;;;;;;;;;;;;;13.47;66.05;101690.09;5050292;28;20364;-89
2022/10/10 00:48:13;;;;;;;;;;;;;;;13.45;66.45;101692.13;5042057;28;19928;-88
2022/10/10 00:50:43;;;;;;;;;;;;;;;13.42;66.23;101687.88;5050487;28;19932;-88
2022/10/10 00:53:09;;;;;;;;;;;;;;;13.45;66.51;101689.41;5045750;28;19937;-88
2022/10/10 00:55:34;;;;;;;;;;;;;;;13.41;66.57;101677.22;5039904;28;19924;-87
2022/10/10 00:57:59;;;;;;;;;;;;;;;13.47;66.54;101692.81;5043494;28;19921;-89
2022/10/10 01:00:24;;;;;;;;;;;;;;;13.49;66.31;101688.94;5045254;28;20359;-88
2022/10/10 01:02:50;;;;;;;;;;;;;;;13.48;66.30;101686.38;5040347;28;19921;-89
2022/10/10 01:05:17;;;;;;;;;;;;;;;13.52;66.25;101693.19;5050785;28;19925;-89
2022/10/10 01:07:42;;;;;;;;;;;;;;;13.48;66.43;101691.78;5049015;28;20011;-90
2022/10/10 01:10:11;;;;;;;;;;;;;;;13.51;66.44;101702.31;5050612;28;20047;-88
2022/10/10 01:12:45;;;;;;;;;;;;;;;13.52;66.29;101706.69;5042657;28;19925;-89
2022/10/10 01:15:27;;;;;;;;;;;;;;;13.54;66.26;101693.03;5050920;28;20404;-89
2022/10/10 01:17:54;;;;;;;;;;;;;;;13.53;66.43;101697.56;5047549;28;19928;-88
2022/10/10 01:20:38;;;;;;;;;;;;;;;13.53;66.17;101694.88;5065994;28;19929;-87
2022/10/10 01:23:05;;;;;;;;;;;;;;;13.48;66.42;101700.75;5045001;28;19975;-89
2022/10/10 01:25:33;;;;;;;;;;;;;;;13.55;66.52;101703.69;5048169;28;19924;-88
2022/10/10 01:28:09;;;;;;;;;;;;;;;13.56;66.27;101705.38;5047589;28;19928;-88
2022/10/10 01:30:35;;;;;;;;;;;;;;;13.52;66.54;101709.41;5042528;28;20065;-90
2022/10/10 01:36:08;;;;;;;;;;;;;;;13.60;65.98;101711.31;5054966;28;20257;-88
2022/10/10 01:38:35;;;;;;;;;;;;;;;13.62;66.26;101717.41;5033698;28;19924;-86
2022/10/10 01:41:18;;;;;;;;;;;;;;;13.60;66.29;101723.00;5058589;28;20066;-88
2022/10/10 01:43:50;;;;;;;;;;;;;;;13.52;66.34;101720.19;5071471;28;19916;-88
2022/10/10 01:46:16;;;;;;;;;;;;;;;13.50;66.54;101722.22;5036583;28;19917;-88
2022/10/10 01:48:42;;;;;;;;;;;;;;;13.51;66.54;101723.94;5061950;28;20301;-88
2022/10/10 01:51:12;;;;;;;;;;;;;;;13.51;66.35;101729.31;5032585;28;19923;-89
2022/10/10 01:53:53;;;;;;;;;;;;;;;13.41;66.79;101728.53;5043405;28;19929;-88
2022/10/10 01:56:37;;;;;;;;;;;;;;;13.42;66.63;101719.44;5046509;28;19917;-90
2022/10/10 01:59:11;;;;;;;;;;;;;;;13.33;67.29;101720.34;5055819;28;20298;-88
2022/10/10 02:01:47;;;;;;;;;;;;;;;13.32;67.06;101721.34;5044242;28;20008;-88
2022/10/10 02:04:21;;;;;;;;;;;;;;;13.37;67.11;101724.44;5046022;28;19948;-89
2022/10/10 02:06:53;;;;;;;;;;;;;;;13.34;67.16;101724.75;5045080;28;19921;-89
2022/10/10 02:09:20;;;;;;;;;;;;;;;13.31;67.17;101723.19;5027017;28;20008;-89
2022/10/10 02:11:45;;;;;;;;;;;;;;;13.42;66.75;101746.47;5036558;28;19998;-90
2022/10/10 02:14:10;;;;;;;;;;;;;;;13.37;67.01;101737.94;5055747;28;19943;-87
2022/10/10 02:16:38;;;;;;;;;;;;;;;13.44;66.79;101739.06;5051913;28;20731;-89
2022/10/10 02:19:05;;;;;;;;;;;;;;;13.38;67.15;101745.06;5051718;28;19940;-89
2022/10/10 02:21:30;;;;;;;;;;;;;;;13.44;66.61;101745.28;5031927;28;19921;-89
2022/10/10 02:23:55;;;;;;;;;;;;;;;13.56;66.31;101750.47;5053490;28;20451;-90
2022/10/10 02:26:21;;;;;;;;;;;;;;;13.48;66.48;101754.78;5043034;28;19921;-90
2022/10/10 02:28:46;;;;;;;;;;;;;;;13.55;66.31;101757.72;5066070;28;19928;-89
2022/10/10 02:31:14;;;;;;;;;;;;;;;13.59;66.42;101761.81;5048957;28;20326;-88
2022/10/10 02:33:43;;;;;;;;;;;;;;;13.52;66.25;101763.44;5063770;28;20415;-89
2022/10/10 02:36:10;;;;;;;;;;;;;;;13.54;66.08;101761.44;5035768;28;19925;-88
2022/10/10 02:38:35;;;;;;;;;;;;;;;13.55;66.07;101768.50;5039138;28;20313;-89
2022/10/10 02:41:05;;;;;;;;;;;;;;;13.49;66.20;101771.84;5030846;28;19951;-88
2022/10/10 02:43:32;;;;;;;;;;;;;;;13.58;66.08;101779.03;5045252;28;19920;-90
2022/10/10 02:45:58;;;;;;;;;;;;;;;13.57;66.37;101782.72;5035884;28;20397;-90
2022/10/10 02:48:23;;;;;;;;;;;;;;;13.60;66.01;101785.16;5051515;28;20333;-90
2022/10/10 02:50:49;;;;;;;;;;;;;;;13.60;66.02;101793.25;5069150;28;19923;-90
2022/10/10 02:53:15;;;;;;;;;;;;;;;13.57;65.97;101792.69;5067740;28;19970;-89
2022/10/10 02:55:40;;;;;;;;;;;;;;;13.54;65.94;101801.97;5046178;28;20499;-88
2022/10/10 02:58:07;;;;;;;;;;;;;;;13.49;66.34;101809.69;5052839;28;19933;-91
2022/10/10 03:00:32;;;;;;;;;;;;;;;13.49;66.12;101812.38;5054025;28;19921;-86
2022/10/10 03:02:58;;;;;;;;;;;;;;;13.51;66.21;101810.38;5050244;28;19952;-90
2022/10/10 03:05:24;;;;;;;;;;;;;;;13.38;66.71;101809.88;5065985;28;19948;-87
2022/10/10 03:07:50;;;;;;;;;;;;;;;13.40;66.43;101808.72;5040000;28;19924;-89
2022/10/10 03:10:15;;;;;;;;;;;;;;;13.38;66.97;101821.53;5062679;28;19921;-88
2022/10/10 03:12:40;;;;;;;;;;;;;;;13.39;66.75;101816.97;5055128;28;19989;-88
2022/10/10 03:15:06;;;;;;;;;;;;;;;13.45;66.52;101827.19;5065679;28;19936;-90
2022/10/10 03:17:31;;;;;;;;;;;;;;;13.28;67.13;101832.38;5069563;28;19932;-88
2022/10/10 03:19:56;;;;;;;;;;;;;;;13.30;67.36;101835.78;5067110;28;20003;-89
2022/10/10 03:22:22;;;;;;;;;;;;;;;13.40;66.91;101834.91;5062252;28;19925;-90
2022/10/10 03:24:48;;;;;;;;;;;;;;;13.41;66.94;101840.13;5053530;28;19932;-88
2022/10/10 03:27:13;;;;;;;;;;;;;;;13.37;67.17;101843.28;5047579;28;19925;-89
2022/10/10 03:29:39;;;;;;;;;;;;;;;13.39;67.08;101839.44;5047146;28;19924;-89
2022/10/10 03:32:05;;;;;;;;;;;;;;;13.26;67.55;101845.16;5043183;28;19925;-90
2022/10/10 03:34:31;;;;;;;;;;;;;;;13.40;67.07;101840.28;5051735;28;19927;-89
2022/10/10 03:36:58;;;;;;;;;;;;;;;13.43;66.90;101839.97;5048181;28;20446;-88
2022/10/10 03:39:27;;;;;;;;;;;;;;;13.38;66.87;101831.50;5039128;28;19921;-89
2022/10/10 03:42:00;;;;;;;;;;;;;;;13.31;67.15;101844.75;5044057;28;20321;-91
2022/10/10 03:44:28;;;;;;;;;;;;;;;13.32;67.10;101850.97;5046742;28;19921;-88
2022/10/10 03:46:53;;;;;;;;;;;;;;;13.35;67.27;101838.03;5039543;28;19936;-88
2022/10/10 03:49:19;;;;;;;;;;;;;;;13.24;67.17;101846.31;5041389;28;22879;-91
2022/10/10 03:51:45;;;;;;;;;;;;;;;13.18;67.61;101852.28;5034320;28;19924;-89
2022/10/10 03:54:12;;;;;;;;;;;;;;;13.23;67.28;101850.88;5034511;28;20015;-89
2022/10/10 03:56:41;;;;;;;;;;;;;;;13.25;67.24;101848.00;5046634;28;19921;-88
2022/10/10 03:59:07;;;;;;;;;;;;;;;13.23;67.72;101844.63;5041335;28;19987;-88
2022/10/10 04:01:34;;;;;;;;;;;;;;;13.18;67.87;101850.47;5045042;28;19928;-89
2022/10/10 04:03:59;;;;;;;;;;;;;;;13.25;67.27;101851.56;5046779;28;19921;-87
2022/10/10 04:06:26;;;;;;;;;;;;;;;13.18;67.67;101861.28;5051182;28;19978;-86
2022/10/10 04:08:51;;;;;;;;;;;;;;;13.14;67.39;101859.00;5051061;28;20012;-88
2022/10/10 04:11:17;;;;;;;;;;;;;;;13.05;67.58;101855.34;5064372;28;20499;-87
2022/10/10 04:13:42;;;;;;;;;;;;;;;13.14;67.17;101856.31;5050316;28;19932;-88
2022/10/10 04:16:07;;;;;;;;;;;;;;;13.19;67.33;101856.72;5048164;28;20372;-88
2022/10/10 04:18:34;;;;;;;;;;;;;;;13.15;67.16;101864.25;5051491;28;20000;-87
2022/10/10 04:21:02;;;;;;;;;;;;;;;13.19;67.09;101859.41;5052059;28;19939;-88
2022/10/10 04:23:28;;;;;;;;;;;;;;;13.16;66.78;101867.78;5056191;28;19960;-87
2022/10/10 04:25:53;;;;;;;;;;;;;;;13.25;66.63;101865.06;5049936;28;20010;-87
2022/10/10 04:28:19;;;;;;;;;;;;;;;13.13;67.34;101866.25;5064079;28;19925;-89
2022/10/10 04:30:44;;;;;;;;;;;;;;;13.22;65.92;101872.59;5043505;28;20015;-88
2022/10/10 04:33:09;;;;;;;;;;;;;;;13.23;66.02;101872.47;5051172;28;19928;-88
2022/10/10 04:35:35;;;;;;;;;;;;;;;13.27;65.97;101864.91;5051826;28;20441;-89
2022/10/10 04:38:00;;;;;;;;;;;;;;;13.37;65.77;101876.56;5056855;28;19988;-89
2022/10/10 04:40:27;;;;;;;;;;;;;;;13.42;65.16;101868.84;5063732;28;19947;-88
2022/10/10 04:42:52;;;;;;;;;;;;;;;13.52;65.17;101879.59;5080652;28;19932;-88
2022/10/10 04:45:18;;;;;;;;;;;;;;;13.35;65.14;101877.72;5081582;28;19925;-86
2022/10/10 04:47:43;;;;;;;;;;;;;;;13.49;64.82;101880.75;5049504;28;19928;-87
2022/10/10 04:50:08;;;;;;;;;;;;;;;13.55;64.09;101875.75;5054772;28;20024;-88
2022/10/10 04:52:34;;;;;;;;;;;;;;;13.60;63.83;101885.13;5049617;28;19970;-89
2022/10/10 04:55:00;;;;;;;;;;;;;;;13.79;63.08;101889.56;5068874;28;20004;-88
2022/10/10 04:57:26;;;;;;;;;;;;;;;13.83;62.82;101893.63;5052980;28;19979;-88
2022/10/10 04:59:54;;;;;;;;;;;;;;;13.96;62.53;101892.44;5050359;28;19925;-88
2022/10/10 05:02:19;;;;;;;;;;;;;;;13.98;62.22;101909.31;5048128;28;19987;-90
2022/10/10 05:04:45;;;;;;;;;;;;;;;13.99;62.22;101906.47;5050584;28;20381;-88
2022/10/10 05:07:11;;;;;;;;;;;;;;;14.04;61.67;101898.75;5049580;28;20046;-90
2022/10/10 05:09:36;;;;;;;;;;;;;;;13.98;61.83;101902.09;5061850;28;19920;-87
2022/10/10 05:12:02;;;;;;;;;;;;;;;14.28;60.81;101900.00;5049785;28;19943;-88
2022/10/10 05:14:27;;;;;;;;;;;;;;;14.20;60.37;101905.34;5065558;28;20369;-89
2022/10/10 05:16:54;;;;;;;;;;;;;;;14.31;59.84;101897.00;5048114;28;20579;-88
2022/10/10 05:19:19;;;;;;;;;;;;;;;14.44;59.04;101905.53;5045487;28;20372;-87
2022/10/10 05:21:45;;;;;;;;;;;;;;;14.56;59.14;101903.47;5040948;28;19992;-90
2022/10/10 05:24:10;;;;;;;;;;;;;;;14.75;58.89;101916.00;5043951;28;19948;-88
2022/10/10 05:26:36;;;;;;;;;;;;;;;14.95;57.36;101916.63;5041148;28;19959;-87
2022/10/10 05:29:01;;;;;;;;;;;;;;;14.98;56.84;101924.44;5042074;28;20377;-87
2022/10/10 05:31:28;;;;;;;;;;;;;;;14.99;56.32;101929.69;5045606;28;19925;-87
2022/10/10 05:33:54;;;;;;;;;;;;;;;15.17;56.23;101926.06;5042079;28;19944;-88
2022/10/10 05:36:20;;;;;;;;;;;;;;;15.40;55.28;101939.91;5052014;28;20065;-88
2022/10/10 05:38:45;;;;;;;;;;;;;;;15.51;54.65;101938.78;5048215;28;19925;-92
2022/10/10 05:41:11;;;;;;;;;;;;;;;15.75;54.03;101938.06;5065242;28;20012;-90
2022/10/10 05:43:36;;;;;;;;;;;;;;;16.94;50.84;101940.44;5047473;28;19929;-87
2022/10/10 05:46:02;;;;;;;;;;;;;;;18.18;48.98;101943.59;5044328;28;19923;-90
2022/10/10 05:48:27;;;;;;;;;;;;;;;19.34;45.28;101945.16;5045148;28;19921;-87
2022/10/10 05:50:57;;;;;;;;;;;;;;;20.14;42.92;101933.38;5072350;28;20324;-91
2022/10/10 05:53:23;;;;;;;;;;;;;;;20.91;41.59;101947.34;5052536;28;20353;-89
2022/10/10 05:55:49;;;;;;;;;;;;;;;21.24;40.33;101953.06;5052646;28;19925;-87
2022/10/10 05:58:16;;;;;;;;;;;;;;;21.75;39.09;101958.22;5051951;28;19929;-91
2022/10/10 06:00:47;;;;;;;;;;;;;;;22.11;37.91;101955.19;5053023;28;20388;-88
2022/10/10 06:03:15;;;;;;;;;;;;;;;21.84;37.95;101950.66;5053093;28;19921;-89
2022/10/10 06:05:40;;;;;;;;;;;;;;;22.27;37.54;101961.38;5052467;28;20012;-87
2022/10/10 06:08:06;;;;;;;;;;;;;;;22.41;36.51;101960.38;5054453;28;20117;-89
2022/10/10 06:10:36;;;;;;;;;;;;;;;22.84;36.30;101970.09;5048160;28;20309;-87
2022/10/10 06:13:09;;;;;;;;;;;;;;;23.07;35.70;101975.19;5056165;28;19921;-92
2022/10/10 06:15:35;;;;;;;;;;;;;;;23.37;35.46;101970.91;5060781;28;19928;-90
2022/10/10 06:18:02;;;;;;;;;;;;;;;23.57;34.59;101973.59;5053845;28;19921;-91
2022/10/10 06:20:30;;;;;;;;;;;;;;;23.56;34.45;101976.56;5043957;28;20055;-91
2022/10/10 06:23:17;;;;;;;;;;;;;;;22.82;35.08;101978.50;5053164;28;19920;-93
2022/10/10 06:25:44;;;;;;;;;;;;;;;23.30;35.04;101981.06;5041516;28;19924;-91
2022/10/10 06:28:10;;;;;;;;;;;;;;;23.44;35.17;101970.06;5052851;28;19921;-90
2022/10/10 06:30:47;;;;;;;;;;;;;;;23.52;33.83;101972.56;5057822;28;19916;-90
2022/10/10 06:33:15;;;;;;;;;;;;;;;23.58;33.25;101972.56;5057662;28;20355;-91
2022/10/10 06:35:42;;;;;;;;;;;;;;;23.61;34.38;101979.50;5064656;28;19943;-91
2022/10/10 06:38:08;;;;;;;;;;;;;;;23.73;32.68;101980.50;5052123;28;19920;-90
2022/10/10 06:40:35;;;;;;;;;;;;;;;24.01;32.48;101980.22;5065912;28;19921;-89
2022/10/10 06:43:00;;;;;;;;;;;;;;;24.09;33.04;101975.53;5042049;28;19932;-89
2022/10/10 06:45:26;;;;;;;;;;;;;;;24.37;32.32;101970.53;5047362;28;19928;-89
2022/10/10 06:47:51;;;;;;;;;;;;;;;24.37;30.96;101977.91;5052232;28;19957;-88
2022/10/10 06:50:16;;;;;;;;;;;;;;;24.68;31.78;101981.75;5049598;28;20019;-90
2022/10/10 06:52:43;;;;;;;;;;;;;;;24.91;30.68;101975.63;5050003;28;20392;-88
2022/10/10 06:55:08;;;;;;;;;;;;;;;25.17;30.23;101982.81;5049422;28;20077;-89
2022/10/10 06:57:35;;;;;;;;;;;;;;;25.27;29.26;101981.25;5049734;28;19977;-89
2022/10/10 07:00:00;;;;;;;;;;;;;;;25.11;30.38;101983.72;5044942;28;20325;-88
2022/10/10 07:02:27;;;;;;;;;;;;;;;25.43;29.25;101990.84;5044363;28;20043;-89
2022/10/10 07:04:55;;;;;;;;;;;;;;;24.51;29.80;101985.03;5047454;28;20443;-89
2022/10/10 07:07:26;;;;;;;;;;;;;;;24.08;30.48;101991.19;5037891;28;19920;-92
2022/10/10 07:09:51;;;;;;;;;;;;;;;24.51;30.41;101993.28;5067021;28;20373;-89
2022/10/10 07:12:17;;;;;;;;;;;;;;;24.74;29.96;101991.84;5047396;28;19987;-87
2022/10/10 07:14:43;;;;;;;;;;;;;;;25.44;29.61;101992.50;5064659;28;19924;-91
2022/10/10 07:17:08;;;;;;;;;;;;;;;25.93;27.99;101994.53;5051252;28;19991;-91
2022/10/10 07:19:37;;;;;;;;;;;;;;;26.74;27.63;101991.28;5053232;28;19973;-88
2022/10/10 07:22:02;;;;;;;;;;;;;;;27.68;26.17;102001.50;5041335;28;19967;-91
2022/10/10 07:24:28;;;;;;;;;;;;;;;28.35;25.05;101992.66;5049741;28;19991;-90
2022/10/10 07:26:55;;;;;;;;;;;;;;;29.01;23.04;101990.22;5045710;28;19929;-90
2022/10/10 07:29:20;;;;;;;;;;;;;;;29.91;22.30;101987.38;5057274;28;19977;-90
2022/10/10 07:31:46;;;;;;;;;;;;;;;30.39;21.04;101991.28;5045818;28;20015;-91
2022/10/10 07:34:11;;;;;;;;;;;;;;;29.28;21.69;101986.78;5049883;28;20007;-91
2022/10/10 07:36:39;;;;;;;;;;;;;;;30.42;21.40;101990.75;5049687;28;20030;-89
2022/10/10 07:39:05;;;;;;;;;;;;;;;30.87;20.36;101991.44;5064420;28;19917;-89
2022/10/10 07:41:30;;;;;;;;;;;;;;;31.86;19.56;101984.25;5060127;28;19971;-90
2022/10/10 07:43:55;;;;;;;;;;;;;;;32.87;18.79;101984.72;5072971;28;19913;-86
2022/10/10 07:46:21;;;;;;;;;;;;;;;33.50;17.88;101986.31;5075418;28;19993;-89
2022/10/10 07:48:49;;;;;;;;;;;;;;;33.50;17.70;101980.72;5071530;28;19917;-91
2022/10/10 07:51:16;;;;;;;;;;;;;;;34.24;17.34;101974.28;5075043;28;20317;-91
2022/10/10 07:53:43;;;;;;;;;;;;;;;34.77;16.85;101981.16;5051772;28;20325;-89
2022/10/10 07:56:10;;;;;;;;;;;;;;;35.03;16.58;101970.59;5068291;28;19927;-89
2022/10/10 07:58:36;;;;;;;;;;;;;;;35.53;16.26;101973.13;5054269;28;19928;-91
2022/10/10 08:01:09;;;;;;;;;;;;;;;36.18;15.10;101980.97;5058016;28;19948;-88
2022/10/10 08:03:35;;;;;;;;;;;;;;;36.60;14.33;101977.25;5050627;28;19924;-91
2022/10/10 08:06:04;;;;;;;;;;;;;;;36.92;14.07;101978.34;5029595;28;20435;-87
2022/10/10 08:08:29;;;;;;;;;;;;;;;37.01;13.36;101972.88;5056751;28;19921;-87
2022/10/10 08:10:58;;;;;;;;;;;;;;;37.61;13.11;101966.44;5058191;28;19938;-87
2022/10/10 08:13:29;;;;;;;;;;;;;;;38.55;12.81;101962.03;5060933;28;19920;-94
2022/10/10 08:15:59;;;;;;;;;;;;;;;38.95;12.15;101965.75;5054118;28;19953;-87
2022/10/10 08:18:25;;;;;;;;;;;;;;;39.17;11.80;101961.22;5043995;28;20103;-88
2022/10/10 08:20:57;;;;;;;;;;;;;;;39.26;11.82;101954.47;5064572;28;19962;-86
2022/10/10 08:23:24;;;;;;;;;;;;;;;39.85;10.67;101958.97;5048975;28;19917;-90
2022/10/10 08:25:49;;;;;;;;;;;;;;;39.44;11.02;101963.81;5061719;28;19921;-85
2022/10/10 08:28:14;;;;;;;;;;;;;;;38.97;12.73;101974.69;5049183;28;19916;-85
2022/10/10 08:30:40;;;;;;;;;;;;;;;37.67;14.01;101967.97;5047237;28;19928;-87
2022/10/10 08:33:05;;;;;;;;;;;;;;;38.05;13.95;101962.94;5048723;28;20399;-86
2022/10/10 08:35:31;;;;;;;;;;;;;;;38.20;13.84;101961.72;5049093;28;19920;-86
2022/10/10 08:37:56;;;;;;;;;;;;;;;37.77;13.86;101959.34;5050997;28;20016;-87
2022/10/10 08:40:22;;;;;;;;;;;;;;;38.21;13.66;101960.56;5066281;28;19991;-85
2022/10/10 08:42:51;;;;;;;;;;;;;;;38.31;13.60;101968.75;5048929;28;20412;-90
2022/10/10 08:45:19;;;;;;;;;;;;;;;36.35;14.40;101965.28;5045561;28;19920;-90
2022/10/10 08:47:53;;;;;;;;;;;;;;;35.76;14.78;101963.91;5051895;28;19931;-87
2022/10/10 08:50:38;;;;;;;;;;;;;;;36.02;14.83;101963.53;5065702;28;19971;-91
2022/10/10 08:53:33;;;;;;;;;;;;;;;36.55;14.45;101963.31;5051188;28;19968;-90
2022/10/10 08:56:00;;;;;;;;;;;;;;;36.98;13.84;101965.91;5039149;28;20344;-86
2022/10/10 08:58:28;;;;;;;;;;;;;;;37.55;13.79;101952.47;5046615;28;19985;-88
2022/10/10 09:00:57;;;;;;;;;;;;;;;38.43;13.08;101956.94;5060990;28;20461;-89
2022/10/10 09:03:25;;;;;;;;;;;;;;;38.56;12.96;101963.66;5029078;28;19928;-89
2022/10/10 09:05:51;;;;;;;;;;;;;;;40.11;11.15;101967.44;5043359;28;20007;-88
2022/10/10 09:08:22;;;;;;;;;;;;;;;40.46;10.04;101967.44;5049614;28;20098;-87
2022/10/10 09:10:51;;;;;;;;;;;;;;;42.15;8.09;101969.69;5036327;28;19948;-86
2022/10/10 09:13:20;;;;;;;;;;;;;;;42.92;7.57;101969.25;5044430;28;19917;-86
2022/10/10 09:15:51;;;;;;;;;;;;;;;43.60;7.05;101961.06;5058998;28;19927;-87
2022/10/10 09:18:35;;;;;;;;;;;;;;;44.43;6.18;101963.56;5062338;28;20803;-88
2022/10/10 09:21:11;;;;;;;;;;;;;;;42.83;6.70;101960.06;5066088;28;19917;-88
2022/10/10 09:23:48;;;;;;;;;;;;;;;43.63;6.38;101965.22;5052660;28;19920;-88
2022/10/10 09:26:15;;;;;;;;;;;;;;;42.66;6.86;101961.06;5057407;28;19925;-88
2022/10/10 09:28:49;;;;;;;;;;;;;;;42.43;7.47;101960.63;5049282;28;20101;-88
2022/10/10 09:31:14;;;;;;;;;;;;;;;41.41;8.30;101957.88;5049593;28;19928;-87
2022/10/10 09:33:45;;;;;;;;;;;;;;;41.04;8.52;101959.50;5049078;28;19921;-89
2022/10/10 09:36:12;;;;;;;;;;;;;;;42.03;8.36;101949.84;5061443;28;20176;-87
2022/10/10 09:38:41;;;;;;;;;;;;;;;42.48;7.86;101949.94;5047691;28;19925;-87
2022/10/10 09:41:07;;;;;;;;;;;;;;;42.98;9.01;101946.06;5055408;28;20305;-87
2022/10/10 09:43:33;;;;;;;;;;;;;;;43.98;8.64;101942.00;5037496;28;19921;-87
2022/10/10 09:46:00;;;;;;;;;;;;;;;43.10;8.97;101944.41;5044137;28;21336;-87
2022/10/10 09:48:30;;;;;;;;;;;;;;;40.80;10.43;101949.66;5053446;28;19996;-88
2022/10/10 09:50:56;;;;;;;;;;;;;;;42.52;9.26;101944.41;5070526;28;19917;-86
2022/10/10 09:53:21;;;;;;;;;;;;;;;41.79;10.23;101940.03;5049563;28;19920;-88
2022/10/10 09:55:47;;;;;;;;;;;;;;;41.52;9.77;101941.38;5066560;28;19917;-87
2022/10/10 09:58:19;;;;;;;;;;;;;;;40.71;10.48;101946.84;5070298;28;19913;-89
2022/10/10 10:00:44;;;;;;;;;;;;;;;39.37;11.55;101942.97;5072681;28;19979;-88
2022/10/10 10:03:13;;;;;;;;;;;;;;;38.94;12.04;101935.13;5052688;28;19925;-86
2022/10/10 10:05:39;;;;;;;;;;;;;;;37.15;14.03;101935.34;5054719;28;19929;-86
2022/10/10 10:08:05;;;;;;;;;;;;;;;35.48;15.29;101930.09;5054407;28;20301;-86
2022/10/10 10:10:33;;;;;;;;;;;;;;;35.27;14.98;101923.13;5047839;28;19932;-85
2022/10/10 10:12:58;;;;;;;;;;;;;;;35.12;15.39;101931.66;5049153;28;19999;-86
2022/10/10 10:15:28;;;;;;;;;;;;;;;33.85;16.18;101932.34;5046612;28;20026;-88
2022/10/10 10:18:10;;;;;;;;;;;;;;;32.35;18.27;101927.38;5048702;28;19916;-89
2022/10/10 10:20:39;;;;;;;;;;;;;;;31.09;20.03;101927.44;5048879;28;20313;-86
2022/10/10 10:23:21;;;;;;;;;;;;;;;30.97;20.30;101926.81;5050351;28;19920;-87
2022/10/10 10:25:46;;;;;;;;;;;;;;;31.01;20.56;101931.56;5064739;28;19921;-87
2022/10/10 10:28:14;;;;;;;;;;;;;;;30.71;20.39;101918.28;5048620;28;20397;-89
2022/10/10 10:30:40;;;;;;;;;;;;;;;29.49;21.32;101924.19;5050206;28;19979;-87
2022/10/10 10:33:08;;;;;;;;;;;;;;;30.24;20.38;101916.19;5047604;28;19929;-90
2022/10/10 10:35:58;;;;;;;;;;;;;;;31.22;19.45;101924.19;5052527;28;19950;-89
2022/10/10 10:38:50;;;;;;;;;;;;;;;32.01;19.58;101921.47;5058616;28;19921;-93
2022/10/10 10:41:25;;;;;;;;;;;;;;;31.89;19.75;101916.13;5054944;28;19963;-90
2022/10/10 10:43:56;;;;;;;;;;;;;;;32.80;18.90;101909.84;5060302;28;19921;-88
2022/10/10 10:46:37;;;;;;;;;;;;;;;32.68;18.65;101925.16;5058198;28;19920;-91
2022/10/10 10:49:22;;;;;;;;;;;;;;;31.88;19.74;101918.06;5056429;28;19916;-91
2022/10/10 10:52:06;;;;;;;;;;;;;;;32.48;19.31;101914.84;5032064;28;19967;-92
2022/10/10 10:54:44;;;;;;;;;;;;;;;31.69;19.96;101919.69;5057278;28;19939;-91
2022/10/10 10:57:19;;;;;;;;;;;;;;;31.45;20.43;101909.06;5055739;28;19928;-92
2022/10/10 10:59:53;;;;;;;;;;;;;;;31.60;19.99;101913.81;5053757;28;20376;-92
2022/10/10 11:02:33;;;;;;;;;;;;;;;30.65;21.44;101906.31;5053626;28;19932;-93
2022/10/10 11:05:17;;;;;;;;;;;;;;;30.65;21.91;101905.47;5067462;28;19971;-92
2022/10/10 11:07:52;;;;;;;;;;;;;;;31.05;22.00;101920.78;5047843;28;20347;-93
2022/10/10 11:10:21;;;;;;;;;;;;;;;28.52;25.21;101911.69;5070021;28;19936;-93
2022/10/10 11:13:05;;;;;;;;;;;;;;;28.38;24.59;101898.13;5057614;28;19956;-93
2022/10/10 11:15:35;;;;;;;;;;;;;;;27.25;26.27;101903.34;5060610;28;19916;-93
2022/10/10 11:18:03;;;;;;;;;;;;;;;27.19;26.68;101903.47;5057867;28;20024;-92
2022/10/10 11:20:49;;;;;;;;;;;;;;;26.35;27.57;101893.44;5078840;28;19928;-92
2022/10/10 11:23:21;;;;;;;;;;;;;;;26.35;27.93;101890.69;5060610;28;19920;-93
2022/10/10 11:25:57;;;;;;;;;;;;;;;25.71;28.20;101895.84;5054655;28;20034;-92
2022/10/10 11:28:26;;;;;;;;;;;;;;;24.92;29.28;101895.66;5059157;28;19912;-94
2022/10/10 11:30:53;;;;;;;;;;;;;;;24.85;30.08;101900.38;5072726;28;19909;-90
2022/10/10 11:33:20;;;;;;;;;;;;;;;24.99;29.23;101895.59;5056250;28;19928;-92
2022/10/10 11:35:59;;;;;;;;;;;;;;;25.05;30.21;101900.16;5061545;28;19917;-92
2022/10/10 11:38:40;;;;;;;;;;;;;;;24.98;30.15;101896.66;5080371;28;19960;-93
2022/10/10 11:41:12;;;;;;;;;;;;;;;24.23;33.01;101898.31;5058060;28;19916;-93
2022/10/10 11:43:49;;;;;;;;;;;;;;;25.45;31.19;101897.88;5042508;28;19928;-95
2022/10/10 11:46:20;;;;;;;;;;;;;;;25.23;30.59;101896.63;5030206;28;19925;-94
2022/10/10 11:49:06;;;;;;;;;;;;;;;25.18;30.44;101899.22;5034762;28;20871;-92
2022/10/10 11:51:43;;;;;;;;;;;;;;;24.41;31.43;101903.03;5037564;28;19948;-93
2022/10/10 11:54:15;;;;;;;;;;;;;;;23.65;32.60;101901.16;5043074;28;19932;-93
2022/10/10 11:57:00;;;;;;;;;;;;;;;23.83;32.46;101905.09;5043457;28;19944;-93
2022/10/10 11:59:41;;;;;;;;;;;;;;;23.21;36.11;101905.53;5047978;28;20321;-94
2022/10/10 12:02:17;;;;;;;;;;;;;;;22.98;37.13;101905.97;5013834;28;19917;-94
2022/10/10 12:04:49;;;;;;;;;;;;;;;22.74;38.18;101896.50;5049794;28;19909;-91
2022/10/10 12:07:24;;;;;;;;;;;;;;;22.48;39.47;101894.63;5037628;28;19952;-93
2022/10/10 12:09:54;;;;;;;;;;;;;;;22.50;39.98;101897.97;5048782;28;19993;-92
2022/10/10 12:12:22;;;;;;;;;;;;;;;22.87;39.26;101895.63;5036739;28;19931;-90
2022/10/10 12:14:52;;;;;;;;;;;;;;;22.16;40.36;101897.06;5020503;28;19913;-93
2022/10/10 12:17:28;;;;;;;;;;;;;;;22.55;39.91;101892.72;5035593;28;19925;-90
2022/10/10 12:19:54;;;;;;;;;;;;;;;22.41;40.61;101900.09;4996277;28;19952;-93
2022/10/10 12:22:29;;;;;;;;;;;;;;;22.29;40.88;101901.75;5039688;28;19917;-93
2022/10/10 12:25:28;;;;;;;;;;;;;;;22.50;40.88;101887.00;5019689;28;19917;-93
2022/10/10 12:28:02;;;;;;;;;;;;;;;21.85;41.55;101895.72;5041353;28;19921;-94
2022/10/10 12:30:48;;;;;;;;;;;;;;;22.14;40.80;101902.72;5050855;28;19956;-93
2022/10/10 12:33:20;;;;;;;;;;;;;;;21.91;42.20;101907.72;5038765;28;19960;-92
2022/10/10 12:35:45;;;;;;;;;;;;;;;21.41;42.22;101913.44;5030797;28;19921;-93
2022/10/10 12:38:15;;;;;;;;;;;;;;;21.43;42.48;101907.78;5023449;28;20032;-94
2022/10/10 12:40:53;;;;;;;;;;;;;;;21.27;42.93;101915.22;5025073;28;19996;-93
2022/10/10 12:43:35;;;;;;;;;;;;;;;20.68;44.56;101914.81;5055732;28;20008;-95
2022/10/10 12:46:16;;;;;;;;;;;;;;;20.85;44.34;101911.56;5057203;28;20012;-95
2022/10/10 12:48:41;;;;;;;;;;;;;;;21.07;43.34;101911.50;5059814;28;20015;-94
2022/10/10 12:51:14;;;;;;;;;;;;;;;20.24;45.61;101911.22;5060695;28;19945;-92